Time;durP1;ratioP1;P1;durP2;ratioP2;P2;SDS_P1;SDS_P2;PMS_P1;PMS_P2;Temp;Humidity;BMP_temperature;BMP_pressure;BME280_temperature;BME280_humidity;BME280_pressure;Samples;Min_cycle;Max_cycle;Signal;HPM_P1;HPM_P2
2022/03/06 00:01:01;;;;;;;5.95;3.42;;;-1.50;99.90;;;;;;5076322;28;20032;-68
2022/03/06 00:03:27;;;;;;;6.22;3.15;;;-1.50;99.90;;;;;;5076251;28;20039;-68
2022/03/06 00:05:52;;;;;;;5.28;2.22;;;-1.40;99.90;;;;;;5076261;28;20028;-68
2022/03/06 00:08:18;;;;;;;11.77;2.83;;;-1.30;99.90;;;;;;5075286;28;20020;-67
2022/03/06 00:10:43;;;;;;;9.32;3.58;;;-1.10;99.90;;;;;;5075924;28;20075;-68
2022/03/06 00:13:09;;;;;;;6.90;3.17;;;-1.00;99.90;;;;;;5074890;28;20075;-68
2022/03/06 00:15:35;;;;;;;5.47;2.85;;;-0.90;99.90;;;;;;5074753;28;20044;-68
2022/03/06 00:18:00;;;;;;;10.90;2.90;;;-0.80;99.90;;;;;;5076057;28;20089;-67
2022/03/06 00:20:26;;;;;;;6.68;3.30;;;-0.70;99.90;;;;;;5075991;28;20059;-68
2022/03/06 00:22:52;;;;;;;4.97;3.10;;;-0.70;99.90;;;;;;5076019;28;20035;-67
2022/03/06 00:25:17;;;;;;;7.82;3.20;;;-0.60;99.90;;;;;;5076230;28;20105;-67
2022/03/06 00:27:43;;;;;;;6.07;3.20;;;-0.60;99.90;;;;;;5076052;28;20360;-68
2022/03/06 00:30:09;;;;;;;6.28;2.97;;;-0.50;99.90;;;;;;5075611;28;20492;-68
2022/03/06 00:32:34;;;;;;;5.90;2.80;;;-0.50;99.90;;;;;;5075834;28;20074;-68
2022/03/06 00:35:00;;;;;;;10.15;3.47;;;-0.50;99.90;;;;;;5075736;28;20435;-68
2022/03/06 00:37:26;;;;;;;16.20;3.97;;;-0.50;99.90;;;;;;5075975;28;20036;-67
2022/03/06 00:39:51;;;;;;;10.23;3.08;;;-0.50;99.90;;;;;;5075544;28;20111;-68
2022/03/06 00:42:17;;;;;;;11.75;3.15;;;-0.50;99.90;;;;;;5075582;28;20469;-67
2022/03/06 00:44:42;;;;;;;6.90;3.35;;;-0.60;99.90;;;;;;5076093;28;20453;-67
2022/03/06 00:47:08;;;;;;;7.70;3.33;;;-0.70;99.90;;;;;;5076100;28;20025;-67
2022/03/06 00:49:34;;;;;;;13.82;4.53;;;-0.80;99.90;;;;;;5075529;28;20393;-68
2022/03/06 00:51:59;;;;;;;5.18;2.95;;;-0.80;99.90;;;;;;5075405;28;20067;-67
2022/03/06 00:54:25;;;;;;;9.27;3.63;;;-0.90;99.90;;;;;;5075306;28;20128;-67
2022/03/06 00:56:51;;;;;;;4.82;2.92;;;-0.90;99.90;;;;;;5075349;28;20564;-68
2022/03/06 00:59:17;;;;;;;8.10;2.92;;;-0.90;99.90;;;;;;5075580;28;20028;-67
2022/03/06 01:01:42;;;;;;;9.52;2.97;;;-0.90;99.90;;;;;;5075166;28;20020;-67
2022/03/06 01:04:08;;;;;;;7.38;2.90;;;-0.80;99.90;;;;;;5073929;28;20033;-67
2022/03/06 01:06:34;;;;;;;8.23;2.97;;;-0.80;99.90;;;;;;5075294;28;20028;-67
2022/03/06 01:08:59;;;;;;;4.95;2.30;;;-0.80;99.90;;;;;;5075097;28;20024;-67
2022/03/06 01:11:25;;;;;;;8.55;3.20;;;-0.80;99.90;;;;;;5075161;28;20060;-67
2022/03/06 01:13:51;;;;;;;6.85;3.28;;;-0.70;99.90;;;;;;5074963;28;20040;-67
2022/03/06 01:16:17;;;;;;;6.75;3.53;;;-0.70;99.90;;;;;;5074975;28;20052;-68
2022/03/06 01:18:42;;;;;;;7.00;3.10;;;-0.70;99.90;;;;;;5075154;28;20070;-67
2022/03/06 01:21:08;;;;;;;10.40;3.22;;;-0.80;99.90;;;;;;5074711;28;20082;-67
2022/03/06 01:23:35;;;;;;;9.68;4.38;;;-0.90;99.90;;;;;;5074742;28;20027;-67
2022/03/06 01:26:01;;;;;;;5.10;3.22;;;-1.00;99.90;;;;;;5074609;28;20021;-67
2022/03/06 01:28:27;;;;;;;6.03;3.97;;;-1.00;99.90;;;;;;5074420;28;20036;-67
2022/03/06 01:30:52;;;;;;;5.85;3.35;;;-1.00;99.90;;;;;;5074561;28;20401;-67
2022/03/06 01:33:18;;;;;;;4.57;3.13;;;-1.00;99.90;;;;;;5074544;28;20435;-67
2022/03/06 01:35:44;;;;;;;9.23;3.45;;;-1.10;99.90;;;;;;5074569;28;20017;-67
2022/03/06 01:38:09;;;;;;;10.85;5.13;;;-1.10;99.90;;;;;;5074770;28;20107;-67
2022/03/06 01:40:35;;;;;;;6.55;3.08;;;-1.00;99.90;;;;;;5074646;28;20074;-67
2022/03/06 01:43:00;;;;;;;7.95;2.95;;;-1.00;99.90;;;;;;5074448;28;20529;-67
2022/03/06 01:45:26;;;;;;;11.63;3.53;;;-0.90;99.90;;;;;;5074390;28;20059;-67
2022/03/06 01:47:53;;;;;;;7.88;3.20;;;-0.90;99.90;;;;;;5074379;28;20024;-67
2022/03/06 01:50:22;;;;;;;7.97;2.97;;;-0.80;99.90;;;;;;5074149;28;20033;-68
2022/03/06 01:52:50;;;;;;;11.85;3.58;;;-0.80;99.90;;;;;;5074309;28;20029;-67
2022/03/06 01:55:17;;;;;;;10.23;3.45;;;-0.80;99.90;;;;;;5074462;28;20077;-67
2022/03/06 01:57:45;;;;;;;6.22;4.05;;;-0.80;99.90;;;;;;5074309;28;20027;-68
2022/03/06 02:00:15;;;;;;;4.97;2.58;;;-0.80;99.90;;;;;;5074107;28;20017;-67
2022/03/06 02:02:41;;;;;;;8.45;3.30;;;-0.70;99.90;;;;;;5074649;28;20025;-67
2022/03/06 02:05:08;;;;;;;4.97;2.78;;;-0.70;99.90;;;;;;5074012;28;20388;-67
2022/03/06 02:07:34;;;;;;;5.80;3.83;;;-0.70;99.90;;;;;;5073943;28;20028;-67
2022/03/06 02:10:01;;;;;;;6.50;3.03;;;-0.60;99.90;;;;;;5073741;28;20048;-68
2022/03/06 02:12:27;;;;;;;8.93;3.03;;;-0.60;99.90;;;;;;5073961;28;20028;-68
2022/03/06 02:14:58;;;;;;;7.03;2.95;;;-0.60;99.90;;;;;;5073701;28;20074;-68
2022/03/06 02:17:25;;;;;;;7.60;3.50;;;-0.60;99.90;;;;;;5074092;28;20361;-68
2022/03/06 02:19:54;;;;;;;9.18;3.83;;;-0.60;99.90;;;;;;5073732;28;20025;-68
2022/03/06 02:22:21;;;;;;;7.40;3.13;;;-0.60;99.90;;;;;;5073709;28;20047;-67
2022/03/06 02:24:47;;;;;;;12.55;2.55;;;-0.60;99.90;;;;;;5073695;28;20016;-68
2022/03/06 02:27:12;;;;;;;5.50;2.75;;;-0.60;99.90;;;;;;5073249;28;20035;-68
2022/03/06 02:29:40;;;;;;;6.93;3.38;;;-0.60;99.90;;;;;;5073863;28;20077;-68
2022/03/06 02:32:12;;;;;;;4.90;2.50;;;-0.50;99.90;;;;;;5073541;28;20025;-68
2022/03/06 02:34:38;;;;;;;14.57;3.83;;;-0.50;99.90;;;;;;5073567;28;20033;-67
2022/03/06 02:37:04;;;;;;;10.68;2.92;;;-0.40;99.90;;;;;;5073555;28;20119;-67
2022/03/06 02:39:30;;;;;;;4.30;2.55;;;-0.30;99.90;;;;;;5072953;28;20056;-68
2022/03/06 02:41:56;;;;;;;7.93;3.10;;;-0.40;99.90;;;;;;5073524;28;20500;-67
2022/03/06 02:44:21;;;;;;;10.75;3.25;;;-0.50;99.90;;;;;;5073707;28;20392;-67
2022/03/06 02:46:47;;;;;;;4.07;2.92;;;-0.50;99.90;;;;;;5073715;28;20035;-67
2022/03/06 02:49:13;;;;;;;7.30;3.08;;;-0.50;99.90;;;;;;5073508;28;20085;-67
2022/03/06 02:51:43;;;;;;;10.70;3.15;;;-0.50;99.90;;;;;;5073331;28;20024;-68
2022/03/06 02:54:10;;;;;;;9.57;3.25;;;-0.50;99.90;;;;;;5073360;28;20100;-67
2022/03/06 02:56:36;;;;;;;8.13;2.67;;;-0.50;99.90;;;;;;5073329;28;20017;-68
2022/03/06 02:59:05;;;;;;;11.77;3.22;;;-0.60;99.90;;;;;;5073570;28;20060;-67
2022/03/06 03:01:31;;;;;;;5.18;2.63;;;-0.60;99.90;;;;;;5073207;28;20099;-67
2022/03/06 03:03:56;;;;;;;8.73;3.00;;;-0.60;99.90;;;;;;5073850;28;20433;-67
2022/03/06 03:06:22;;;;;;;7.75;3.55;;;-0.60;99.90;;;;;;5073230;28;20477;-67
2022/03/06 03:08:48;;;;;;;11.20;3.22;;;-0.60;99.90;;;;;;5073204;28;20099;-67
2022/03/06 03:11:14;;;;;;;12.45;4.00;;;-0.60;99.90;;;;;;5072931;28;20059;-67
2022/03/06 03:13:40;;;;;;;12.68;3.55;;;-0.60;99.90;;;;;;5073535;28;20032;-68
2022/03/06 03:16:07;;;;;;;10.05;3.05;;;-0.70;99.90;;;;;;5073228;28;20046;-68
2022/03/06 03:18:32;;;;;;;13.23;4.07;;;-0.70;99.90;;;;;;5073599;28;20100;-68
2022/03/06 03:20:58;;;;;;;6.18;2.95;;;-0.70;99.90;;;;;;5072993;28;20071;-68
2022/03/06 03:23:24;;;;;;;7.93;3.20;;;-0.70;99.90;;;;;;5073027;28;20074;-68
2022/03/06 03:25:49;;;;;;;12.45;3.88;;;-0.80;99.90;;;;;;5073304;28;20108;-68
2022/03/06 03:28:15;;;;;;;5.95;2.78;;;-0.80;99.90;;;;;;5073277;28;20047;-68
2022/03/06 03:30:40;;;;;;;5.25;2.28;;;-0.80;99.90;;;;;;5072952;28;20024;-68
2022/03/06 03:33:06;;;;;;;7.57;2.85;;;-0.90;99.90;;;;;;5072974;28;20437;-68
2022/03/06 03:35:31;;;;;;;3.92;2.33;;;-1.00;99.90;;;;;;5072830;28;20043;-68
2022/03/06 03:37:57;;;;;;;5.80;2.65;;;-1.10;99.90;;;;;;5073247;28;20021;-68
2022/03/06 03:40:23;;;;;;;6.28;2.60;;;-1.20;99.90;;;;;;5072883;28;20021;-68
2022/03/06 03:42:49;;;;;;;4.78;2.97;;;-1.30;99.90;;;;;;5072860;28;20017;-68
2022/03/06 03:45:14;;;;;;;5.97;3.17;;;-1.40;99.90;;;;;;5072893;28;20059;-68
2022/03/06 03:47:40;;;;;;;7.40;2.55;;;-1.60;99.90;;;;;;5073059;28;20528;-68
2022/03/06 03:50:06;;;;;;;9.05;3.30;;;-1.80;99.90;;;;;;5074263;28;20115;-68
2022/03/06 03:52:32;;;;;;;7.55;3.72;;;-1.90;99.90;;;;;;5076392;28;20557;-68
2022/03/06 03:54:57;;;;;;;32.80;11.38;;;-2.00;99.90;;;;;;5076361;28;20029;-68
2022/03/06 03:57:26;;;;;;;34.65;12.65;;;-2.00;99.90;;;;;;5076405;28;20477;-68
2022/03/06 03:59:52;;;;;;;18.95;8.77;;;-2.10;99.90;;;;;;5076320;28;20021;-68
2022/03/06 04:02:17;;;;;;;15.15;6.57;;;-2.20;99.90;;;;;;5076329;28;20031;-68
2022/03/06 04:04:43;;;;;;;14.55;7.50;;;-2.20;99.90;;;;;;5076839;28;20060;-68
2022/03/06 04:07:09;;;;;;;13.63;6.05;;;-2.40;99.90;;;;;;5076285;28;20043;-68
2022/03/06 04:09:35;;;;;;;14.20;6.53;;;-2.50;99.90;;;;;;5076037;28;20158;-68
2022/03/06 04:12:01;;;;;;;9.82;5.30;;;-2.60;99.90;;;;;;5076504;28;20047;-68
2022/03/06 04:14:26;;;;;;;14.23;5.45;;;-2.70;99.90;;;;;;5076330;28;20033;-68
2022/03/06 04:16:52;;;;;;;13.40;5.72;;;-2.80;99.90;;;;;;5076270;28;20021;-68
2022/03/06 04:19:18;;;;;;;12.38;4.68;;;-2.90;99.90;;;;;;5076158;28;20400;-68
2022/03/06 04:21:43;;;;;;;11.10;4.53;;;-2.90;99.90;;;;;;5076197;28;20409;-68
2022/03/06 04:24:09;;;;;;;9.55;4.60;;;-3.00;99.90;;;;;;5075988;28;20473;-68
2022/03/06 04:26:35;;;;;;;9.70;4.32;;;-3.10;99.90;;;;;;5075893;28;20032;-68
2022/03/06 04:29:02;;;;;;;10.93;4.47;;;-3.20;99.90;;;;;;5076387;28;20032;-68
2022/03/06 04:31:28;;;;;;;9.52;4.85;;;-3.20;99.90;;;;;;5075748;28;20028;-68
2022/03/06 04:33:53;;;;;;;15.63;4.25;;;-3.20;99.90;;;;;;5075661;28;20052;-68
2022/03/06 04:36:19;;;;;;;9.00;3.78;;;-3.30;99.90;;;;;;5075678;28;20061;-68
2022/03/06 04:38:45;;;;;;;11.13;4.15;;;-3.40;99.90;;;;;;5075916;28;20031;-68
2022/03/06 04:41:10;;;;;;;7.13;3.55;;;-3.40;99.90;;;;;;5075561;28;20099;-68
2022/03/06 04:43:37;;;;;;;16.40;4.43;;;-3.40;99.90;;;;;;5075641;28;20027;-68
2022/03/06 04:46:03;;;;;;;5.22;3.17;;;-3.40;99.90;;;;;;5075778;28;20038;-68
2022/03/06 04:48:28;;;;;;;9.27;3.70;;;-3.50;99.90;;;;;;5076060;28;20021;-68
2022/03/06 04:50:54;;;;;;;7.75;3.80;;;-3.50;99.90;;;;;;5075379;28;20025;-68
2022/03/06 04:53:20;;;;;;;8.30;3.55;;;-3.60;99.90;;;;;;5075368;28;20528;-68
2022/03/06 04:55:45;;;;;;;5.05;3.38;;;-3.60;99.90;;;;;;5075573;28;20424;-68
2022/03/06 04:58:11;;;;;;;8.50;4.40;;;-3.60;99.90;;;;;;5075277;28;20029;-68
2022/03/06 05:00:37;;;;;;;10.82;4.00;;;-3.70;99.90;;;;;;5075147;28;20025;-68
2022/03/06 05:03:03;;;;;;;10.75;3.63;;;-3.70;99.90;;;;;;5074405;28;20075;-68
2022/03/06 05:05:29;;;;;;;11.70;4.75;;;-3.80;99.90;;;;;;5075108;28;20029;-68
2022/03/06 05:07:54;;;;;;;7.22;3.75;;;-3.80;99.90;;;;;;5075069;28;20017;-68
2022/03/06 05:10:20;;;;;;;14.68;4.93;;;-3.80;99.90;;;;;;5073558;28;20036;-68
2022/03/06 05:12:46;;;;;;;8.05;3.55;;;-3.70;99.90;;;;;;5075284;28;20031;-68
2022/03/06 05:15:13;;;;;;;8.30;4.20;;;-3.70;99.90;;;;;;5074866;28;20029;-68
2022/03/06 05:17:39;;;;;;;14.13;5.10;;;-3.70;99.90;;;;;;5075196;28;20104;-68
2022/03/06 05:20:06;;;;;;;6.97;3.47;;;-3.60;99.90;;;;;;5074753;28;20556;-68
2022/03/06 05:22:32;;;;;;;8.25;4.80;;;-3.60;99.90;;;;;;5074708;28;20048;-68
2022/03/06 05:25:00;;;;;;;14.40;4.40;;;-3.60;99.90;;;;;;5075009;28;20025;-68
2022/03/06 05:27:26;;;;;;;7.43;4.25;;;-3.60;99.90;;;;;;5074832;28;20074;-68
2022/03/06 05:29:52;;;;;;;10.27;4.30;;;-3.60;99.90;;;;;;5074622;28;20036;-68
2022/03/06 05:32:17;;;;;;;6.65;4.25;;;-3.70;99.90;;;;;;5074683;28;20021;-68
2022/03/06 05:34:43;;;;;;;12.52;4.22;;;-3.70;99.90;;;;;;5074757;28;20028;-68
2022/03/06 05:37:08;;;;;;;10.18;3.35;;;-3.80;99.90;;;;;;5074516;28;20384;-68
2022/03/06 05:39:34;;;;;;;11.23;3.97;;;-3.80;99.90;;;;;;5074374;28;20028;-68
2022/03/06 05:42:00;;;;;;;8.32;4.05;;;-3.90;99.90;;;;;;5074998;28;20025;-68
2022/03/06 05:44:26;;;;;;;57.63;19.92;;;-3.90;99.90;;;;;;5074466;28;20086;-68
2022/03/06 05:46:51;;;;;;;31.52;13.45;;;-3.90;99.90;;;;;;5074606;28;20442;-68
2022/03/06 05:49:17;;;;;;;23.08;9.88;;;-3.90;99.90;;;;;;5074517;28;20028;-68
2022/03/06 05:51:44;;;;;;;13.75;7.13;;;-3.90;99.90;;;;;;5074171;28;20055;-68
2022/03/06 05:54:10;;;;;;;21.50;9.75;;;-3.90;99.90;;;;;;5074095;28;20025;-68
2022/03/06 05:56:36;;;;;;;10.73;5.78;;;-3.80;99.90;;;;;;5074098;28;20024;-68
2022/03/06 05:59:03;;;;;;;8.52;4.45;;;-3.80;99.90;;;;;;5074352;28;20081;-68
2022/03/06 06:01:29;;;;;;;8.85;4.47;;;-3.70;99.90;;;;;;5074006;28;20483;-68
2022/03/06 06:03:56;;;;;;;12.90;4.78;;;-3.70;99.90;;;;;;5074288;28;20150;-68
2022/03/06 06:06:23;;;;;;;12.48;4.63;;;-3.70;99.90;;;;;;5073946;28;20025;-68
2022/03/06 06:08:49;;;;;;;12.85;4.60;;;-3.60;99.90;;;;;;5073946;28;20117;-68
2022/03/06 06:11:14;;;;;;;10.65;4.43;;;-3.60;99.90;;;;;;5073677;28;20071;-68
2022/03/06 06:13:40;;;;;;;10.23;3.72;;;-3.50;99.90;;;;;;5073807;28;20434;-68
2022/03/06 06:16:05;;;;;;;7.38;4.45;;;-3.50;99.90;;;;;;5073740;28;20097;-68
2022/03/06 06:18:31;;;;;;;9.98;4.25;;;-3.50;99.90;;;;;;5073924;28;20040;-68
2022/03/06 06:20:57;;;;;;;10.07;4.53;;;-3.40;99.90;;;;;;5073866;28;20511;-68
2022/03/06 06:23:23;;;;;;;12.48;5.28;;;-3.30;99.90;;;;;;5074318;28;20052;-68
2022/03/06 06:25:49;;;;;;;8.23;4.93;;;-3.10;99.90;;;;;;5074294;28;20441;-68
2022/03/06 06:28:14;;;;;;;14.98;5.55;;;-2.90;99.90;;;;;;5074050;28;20083;-68
2022/03/06 06:30:40;;;;;;;8.23;5.03;;;-2.70;99.90;;;;;;5072874;28;20021;-68
2022/03/06 06:33:06;;;;;;;8.13;4.82;;;-2.50;99.90;;;;;;5074150;28;20029;-68
2022/03/06 06:35:32;;;;;;;9.93;6.15;;;-2.30;99.90;;;;;;5074853;28;20381;-68
2022/03/06 06:37:58;;;;;;;10.60;5.70;;;-2.10;99.90;;;;;;5081937;28;20070;-69
2022/03/06 06:40:24;;;;;;;17.05;5.93;;;-2.00;99.90;;;;;;5082954;28;20439;-69
2022/03/06 06:42:49;;;;;;;10.50;5.50;;;-1.90;99.90;;;;;;5078060;28;20016;-68
2022/03/06 06:45:15;;;;;;;36.03;12.65;;;-1.80;99.90;;;;;;5073718;28;20025;-68
2022/03/06 06:47:40;;;;;;;40.13;15.68;;;-1.80;99.90;;;;;;5073399;28;20028;-68
2022/03/06 06:50:06;;;;;;;53.35;18.42;;;-1.70;99.90;;;;;;5073311;28;20032;-68
2022/03/06 06:52:32;;;;;;;40.70;16.23;;;-1.60;99.90;;;;;;5072109;28;20025;-68
2022/03/06 06:54:57;;;;;;;26.05;10.00;;;-1.50;99.90;;;;;;5073553;28;20078;-68
2022/03/06 06:57:23;;;;;;;32.22;11.93;;;-1.40;99.90;;;;;;5073318;28;20024;-68
2022/03/06 06:59:48;;;;;;;14.38;8.25;;;-1.30;99.90;;;;;;5073422;28;20074;-68
2022/03/06 07:02:14;;;;;;;14.02;7.45;;;-1.20;99.90;;;;;;5073245;28;20099;-68
2022/03/06 07:04:39;;;;;;;17.05;8.30;;;-1.10;99.90;;;;;;5073195;28;20029;-68
2022/03/06 07:07:05;;;;;;;11.23;5.57;;;-1.00;99.90;;;;;;5073219;28;20394;-68
2022/03/06 07:09:30;;;;;;;7.70;4.63;;;-0.90;99.90;;;;;;5073086;28;20456;-68
2022/03/06 07:11:56;;;;;;;9.60;5.25;;;-0.80;99.90;;;;;;5073497;28;20098;-68
2022/03/06 07:14:21;;;;;;;8.93;4.97;;;-0.80;99.90;;;;;;5073067;28;20397;-68
2022/03/06 07:16:47;;;;;;;16.17;4.32;;;-0.80;99.90;;;;;;5073393;28;20487;-68
2022/03/06 07:19:13;;;;;;;9.75;5.07;;;-0.80;99.90;;;;;;5073103;28;20024;-68
2022/03/06 07:21:39;;;;;;;5.70;4.22;;;-0.70;99.90;;;;;;5073066;28;20099;-68
2022/03/06 07:24:06;;;;;;;9.43;4.32;;;-0.60;99.90;;;;;;5073191;28;20085;-68
2022/03/06 07:26:31;;;;;;;12.77;4.57;;;-0.60;99.90;;;;;;5077401;28;20031;-68
2022/03/06 07:28:57;;;;;;;12.30;4.15;;;-0.50;99.90;;;;;;5077002;28;20396;-68
2022/03/06 07:31:22;;;;;;;10.27;5.43;;;-0.40;99.90;;;;;;5076941;28;20034;-68
2022/03/06 07:33:48;;;;;;;11.85;5.00;;;-0.30;99.90;;;;;;5076829;28;20040;-68
2022/03/06 07:36:13;;;;;;;13.25;5.45;;;-0.30;99.90;;;;;;5077124;28;20021;-68
2022/03/06 07:38:39;;;;;;;7.50;4.68;;;-0.20;99.90;;;;;;5076866;28;20067;-68
2022/03/06 07:41:05;;;;;;;9.63;5.40;;;0.00;99.90;;;;;;5076671;28;20074;-68
2022/03/06 07:43:30;;;;;;;10.23;4.93;;;0.00;99.90;;;;;;5076680;28;20021;-68
2022/03/06 07:45:56;;;;;;;10.90;4.25;;;0.10;99.90;;;;;;5076924;28;20017;-68
2022/03/06 07:48:22;;;;;;;19.13;7.65;;;0.10;99.90;;;;;;5076692;28;20036;-68
2022/03/06 07:50:48;;;;;;;10.40;5.72;;;0.20;99.90;;;;;;5075280;28;20111;-69
2022/03/06 07:53:13;;;;;;;10.82;6.10;;;0.30;99.90;;;;;;5076508;28;20048;-68
2022/03/06 07:55:39;;;;;;;10.45;5.15;;;0.40;99.90;;;;;;5076531;28;20028;-68
2022/03/06 07:58:05;;;;;;;9.38;4.70;;;0.60;99.90;;;;;;5076492;28;20078;-68
2022/03/06 08:00:30;;;;;;;9.95;4.60;;;0.50;99.90;;;;;;5076282;28;20056;-68
2022/03/06 08:02:56;;;;;;;19.67;7.13;;;0.70;99.90;;;;;;5076826;28;20089;-68
2022/03/06 08:05:23;;;;;;;14.80;5.32;;;0.70;99.90;;;;;;5076315;28;20454;-68
2022/03/06 08:07:48;;;;;;;5.10;3.40;;;0.80;99.90;;;;;;5076583;28;20028;-68
2022/03/06 08:10:14;;;;;;;10.35;3.63;;;0.90;99.90;;;;;;5076150;28;20104;-68
2022/03/06 08:12:43;;;;;;;16.95;4.28;;;0.90;99.90;;;;;;5076240;28;20465;-68
2022/03/06 08:15:09;;;;;;;8.68;4.25;;;0.90;99.90;;;;;;5076044;28;20024;-68
2022/03/06 08:17:36;;;;;;;16.92;6.95;;;1.00;99.90;;;;;;5076029;28;20073;-68
2022/03/06 08:20:03;;;;;;;14.00;5.55;;;1.10;99.90;;;;;;5076211;28;20038;-68
2022/03/06 08:22:29;;;;;;;22.40;8.80;;;1.10;99.90;;;;;;5075937;28;20023;-68
2022/03/06 08:24:55;;;;;;;20.27;5.55;;;1.10;99.90;;;;;;5075950;28;20020;-68
2022/03/06 08:27:21;;;;;;;11.52;5.07;;;1.20;99.90;;;;;;5075884;28;20100;-68
2022/03/06 08:29:47;;;;;;;10.60;4.47;;;1.30;99.90;;;;;;5075662;28;20108;-68
2022/03/06 08:32:13;;;;;;;10.98;4.07;;;1.30;99.90;;;;;;5075810;28;20056;-68
2022/03/06 08:34:38;;;;;;;14.43;4.25;;;1.40;99.90;;;;;;5075677;28;20507;-69
2022/03/06 08:37:04;;;;;;;12.65;3.92;;;1.40;99.90;;;;;;5074537;28;20435;-68
2022/03/06 08:39:30;;;;;;;8.85;4.47;;;1.50;99.90;;;;;;5075653;28;20017;-69
2022/03/06 08:41:56;;;;;;;9.82;4.57;;;1.60;99.90;;;;;;5075937;28;20100;-68
2022/03/06 08:44:21;;;;;;;10.00;4.13;;;1.80;99.90;;;;;;5075525;28;20488;-68
2022/03/06 08:46:47;;;;;;;9.45;4.28;;;1.90;99.90;;;;;;5075811;28;20031;-68
2022/03/06 08:49:13;;;;;;;11.77;3.50;;;2.10;99.90;;;;;;5075525;28;20047;-68
2022/03/06 08:51:38;;;;;;;8.75;3.08;;;2.20;99.90;;;;;;5075345;28;20024;-68
2022/03/06 08:54:04;;;;;;;10.07;2.80;;;2.30;99.90;;;;;;5075894;28;20353;-68
2022/03/06 08:56:29;;;;;;;10.90;3.05;;;2.30;99.90;;;;;;5075615;28;20016;-68
2022/03/06 08:58:55;;;;;;;6.80;2.47;;;2.40;99.90;;;;;;5075356;28;20099;-68
2022/03/06 09:01:21;;;;;;;8.18;3.63;;;2.50;99.90;;;;;;5075285;28;20021;-68
2022/03/06 09:03:47;;;;;;;11.73;3.50;;;2.60;99.90;;;;;;5075590;28;20107;-68
2022/03/06 09:06:12;;;;;;;10.50;2.90;;;2.80;99.90;;;;;;5075198;28;20043;-68
2022/03/06 09:08:38;;;;;;;9.73;2.97;;;2.90;99.90;;;;;;5075175;28;20451;-68
2022/03/06 09:11:05;;;;;;;11.38;3.30;;;3.10;99.90;;;;;;5074807;28;20040;-69
2022/03/06 09:13:31;;;;;;;7.93;3.15;;;3.20;99.90;;;;;;5075512;28;20107;-68
2022/03/06 09:15:57;;;;;;;9.40;2.60;;;3.30;99.90;;;;;;5075301;28;20111;-69
2022/03/06 09:18:22;;;;;;;5.57;2.60;;;3.40;99.90;;;;;;5074969;28;20021;-68
2022/03/06 09:20:48;;;;;;;8.85;3.17;;;3.40;99.90;;;;;;5074792;28;20063;-68
2022/03/06 09:23:14;;;;;;;4.80;2.90;;;3.40;99.90;;;;;;5074814;28;20023;-69
2022/03/06 09:25:39;;;;;;;5.60;2.72;;;3.50;99.90;;;;;;5074731;28;20021;-68
2022/03/06 09:28:05;;;;;;;11.35;2.83;;;3.60;99.90;;;;;;5075301;28;20025;-68
2022/03/06 09:30:31;;;;;;;10.13;2.97;;;3.60;99.90;;;;;;5074779;28;20024;-68
2022/03/06 09:32:57;;;;;;;7.90;2.67;;;3.70;99.90;;;;;;5074591;28;20074;-68
2022/03/06 09:35:23;;;;;;;25.92;8.65;;;3.80;99.90;;;;;;5074509;28;20023;-68
2022/03/06 09:37:48;;;;;;;35.78;9.68;;;4.00;99.90;;;;;;5074486;28;20028;-68
2022/03/06 09:40:15;;;;;;;41.83;15.82;;;4.10;99.90;;;;;;5074436;28;20029;-68
2022/03/06 09:42:40;;;;;;;9.77;3.70;;;4.10;99.90;;;;;;5074606;28;20021;-68
2022/03/06 09:45:11;;;;;;;8.05;3.67;;;4.20;99.90;;;;;;5074445;28;20040;-68
2022/03/06 09:47:38;;;;;;;12.75;4.70;;;4.20;99.90;;;;;;5074138;28;20108;-68
2022/03/06 09:50:05;;;;;;;11.48;4.70;;;4.30;99.90;;;;;;5074327;28;20097;-69
2022/03/06 09:52:31;;;;;;;16.73;7.57;;;4.40;99.90;;;;;;5074345;28;20039;-68
2022/03/06 09:54:57;;;;;;;17.85;5.78;;;4.50;99.90;;;;;;5074130;28;20029;-68
2022/03/06 09:57:22;;;;;;;14.52;4.20;;;4.50;99.90;;;;;;5074353;28;20020;-68
2022/03/06 09:59:48;;;;;;;15.10;4.60;;;4.70;99.90;;;;;;5074078;28;20047;-68
2022/03/06 10:02:15;;;;;;;9.43;4.07;;;4.90;99.90;;;;;;5074616;28;20111;-68
2022/03/06 10:04:41;;;;;;;7.43;3.67;;;5.10;99.90;;;;;;5074013;28;20107;-68
2022/03/06 10:07:12;;;;;;;82.53;37.85;;;5.30;99.90;;;;;;5073937;28;20067;-68
2022/03/06 10:09:54;;;;;;;17.85;4.82;;;5.40;99.90;;;;;;5073880;28;20029;-68
2022/03/06 10:12:29;;;;;;;7.90;3.95;;;5.20;99.90;;;;;;5074119;28;20032;-68
2022/03/06 10:15:00;;;;;;;51.40;26.80;;;5.00;99.90;;;;;;5073728;28;20029;-69
2022/03/06 10:17:31;;;;;;;16.95;5.88;;;5.00;99.90;;;;;;5074164;28;20021;-69
2022/03/06 10:19:57;;;;;;;10.65;3.75;;;5.20;99.90;;;;;;5073712;28;20028;-68
2022/03/06 10:22:31;;;;;;;11.57;3.47;;;5.40;99.90;;;;;;5073402;28;20112;-68
2022/03/06 10:25:06;;;;;;;20.60;6.25;;;5.50;99.90;;;;;;5074041;28;20024;-68
2022/03/06 10:27:54;;;;;;;10.05;3.65;;;5.60;99.90;;;;;;5073618;28;20052;-70
2022/03/06 10:30:37;;;;;;;35.97;9.48;;;5.40;99.90;;;;;;5073557;28;20454;-69
2022/03/06 10:33:10;;;;;;;34.17;10.82;;;5.30;99.90;;;;;;5073895;28;20473;-69
2022/03/06 10:35:40;;;;;;;12.05;3.90;;;5.40;99.90;;;;;;5073460;28;20035;-70
2022/03/06 10:38:22;;;;;;;14.02;3.92;;;5.50;99.90;;;;;;5073505;28;20017;-70
2022/03/06 10:40:49;;;;;;;18.15;5.35;;;5.90;99.90;;;;;;5073287;28;20436;-70
2022/03/06 10:43:19;;;;;;;14.45;4.32;;;6.30;99.90;;;;;;5073748;28;20021;-69
2022/03/06 10:45:46;;;;;;;13.65;4.07;;;6.50;99.90;;;;;;5073479;28;20429;-70
2022/03/06 10:48:12;;;;;;;12.60;4.60;;;6.40;99.90;;;;;;5073584;28;20550;-70
2022/03/06 10:50:38;;;;;;;14.02;3.85;;;6.10;99.90;;;;;;5073652;28;20033;-69
2022/03/06 10:53:22;;;;;;;12.25;4.50;;;6.10;99.90;;;;;;5073617;28;20027;-70
2022/03/06 10:55:48;;;;;;;15.45;4.20;;;6.30;99.90;;;;;;5073579;28;20078;-68
2022/03/06 10:58:13;;;;;;;12.10;4.22;;;6.30;99.90;;;;;;5073569;28;20025;-70
2022/03/06 11:00:41;;;;;;;11.45;4.57;;;6.60;99.90;;;;;;5072796;28;20067;-69
2022/03/06 11:03:07;;;;;;;22.83;6.50;;;6.90;99.90;;;;;;5073366;28;20020;-70
2022/03/06 11:05:33;;;;;;;10.90;4.40;;;7.20;99.90;;;;;;5073232;28;20536;-70
2022/03/06 11:08:00;;;;;;;8.98;4.15;;;7.40;99.90;;;;;;5073287;28;20024;-70
2022/03/06 11:10:27;;;;;;;33.92;9.23;;;7.40;99.90;;;;;;5072059;28;20388;-69
2022/03/06 11:12:53;;;;;;;13.07;5.28;;;7.20;99.90;;;;;;5073436;28;20036;-70
2022/03/06 11:15:20;;;;;;;13.15;4.43;;;7.10;99.90;;;;;;5073633;28;20376;-69
2022/03/06 11:17:46;;;;;;;17.35;6.72;;;7.10;99.90;;;;;;5073102;28;20029;-69
2022/03/06 11:20:12;;;;;;;10.40;4.60;;;7.10;99.90;;;;;;5073064;28;20028;-69
2022/03/06 11:22:57;;;;;;;12.63;5.18;;;7.30;99.90;;;;;;5073296;28;20039;-69
2022/03/06 11:25:27;;;;;;;22.98;7.80;;;7.30;99.90;;;;;;5073550;28;20028;-69
2022/03/06 11:27:58;;;;;;;14.00;4.97;;;7.40;99.90;;;;;;5073256;28;20038;-69
2022/03/06 11:30:24;;;;;;;13.13;4.32;;;7.40;99.90;;;;;;5072969;28;20032;-70
2022/03/06 11:33:00;;;;;;;23.40;8.77;;;7.30;99.90;;;;;;5072975;28;20028;-69
2022/03/06 11:35:35;;;;;;;11.60;4.03;;;7.30;99.90;;;;;;5072852;28;20024;-70
2022/03/06 11:38:02;;;;;;;17.65;4.70;;;7.40;99.90;;;;;;5072969;28;20560;-70
2022/03/06 11:40:45;;;;;;;16.35;5.13;;;7.50;99.90;;;;;;5072814;28;20104;-69
2022/03/06 11:43:12;;;;;;;11.50;4.05;;;7.30;99.90;;;;;;5071737;28;20021;-69
2022/03/06 11:45:58;;;;;;;10.13;4.35;;;7.40;99.90;;;;;;5072990;28;20024;-70
2022/03/06 11:48:47;;;;;;;6.90;3.63;;;7.70;99.90;;;;;;5068820;28;20032;-70
2022/03/06 11:51:17;;;;;;;8.75;1.95;;;8.20;99.90;;;;;;5069875;28;20063;-70
2022/03/06 11:53:56;;;;;;;11.43;3.20;;;8.60;99.90;;;;;;5072921;28;20059;-70
2022/03/06 11:56:41;;;;;;;7.13;4.13;;;8.80;99.90;;;;;;5073131;28;20030;-70
2022/03/06 11:59:29;;;;;;;10.45;3.30;;;8.70;99.90;;;;;;5073132;28;20078;-71
2022/03/06 12:02:21;;;;;;;8.88;3.95;;;9.20;99.90;;;;;;5072965;28;20381;-70
2022/03/06 12:04:52;;;;;;;6.95;3.92;;;9.80;99.90;;;;;;5072363;28;20028;-70
2022/03/06 12:07:20;;;;;;;10.98;4.18;;;9.80;99.90;;;;;;5072992;28;20059;-70
2022/03/06 12:09:47;;;;;;;7.20;3.90;;;8.90;99.90;;;;;;5072587;28;20054;-71
2022/03/06 12:12:18;;;;;;;12.90;3.97;;;8.60;99.90;;;;;;5075622;28;20037;-70
2022/03/06 12:14:53;;;;;;;9.50;3.63;;;8.70;99.90;;;;;;5076431;28;20033;-70
2022/03/06 12:17:21;;;;;;;16.20;4.45;;;9.40;99.90;;;;;;5076432;28;20496;-70
2022/03/06 12:19:46;;;;;;;6.75;3.38;;;10.40;99.90;;;;;;5076276;28;20016;-70
2022/03/06 12:22:21;;;;;;;7.90;3.08;;;10.80;99.90;;;;;;5076063;28;20545;-70
2022/03/06 12:25:09;;;;;;;9.23;4.00;;;10.20;99.90;;;;;;5076034;28;20141;-70
2022/03/06 12:27:37;;;;;;;15.38;4.00;;;9.50;99.90;;;;;;5075835;28;20040;-70
2022/03/06 12:30:05;;;;;;;8.55;3.45;;;9.70;99.90;;;;;;5075803;28;20020;-71
2022/03/06 12:32:31;;;;;;;9.82;3.80;;;10.00;99.90;;;;;;5076098;28;20016;-70
2022/03/06 12:35:03;;;;;;;10.25;3.28;;;10.60;99.90;;;;;;5075760;28;20029;-71
2022/03/06 12:37:42;;;;;;;12.38;4.18;;;10.90;99.90;;;;;;5076345;28;20457;-71
2022/03/06 12:40:16;;;;;;;12.70;4.13;;;11.40;99.90;;;;;;5075546;28;20029;-70
2022/03/06 12:42:43;;;;;;;10.02;4.45;;;11.10;99.90;;;;;;5076033;28;20028;-71
2022/03/06 12:45:17;;;;;;;9.23;3.53;;;10.70;99.90;;;;;;5075670;28;20117;-71